createdAt,value
2019-04-26T00:01:21.465Z,0.90
2019-04-26T00:03:50.843Z,1.80
2019-04-26T00:06:19.855Z,2.07
2019-04-26T00:08:52.499Z,1.17
2019-04-26T00:11:22.976Z,2.20
2019-04-26T00:14:05.000Z,0.93
2019-04-26T00:16:38.097Z,1.20
2019-04-26T00:19:06.660Z,0.80
2019-04-26T00:21:35.330Z,2.17
2019-04-26T00:24:04.325Z,0.80
2019-04-26T00:26:33.157Z,0.77
2019-04-26T00:29:01.581Z,0.77
2019-04-26T00:31:29.998Z,0.90
2019-04-26T00:33:58.463Z,1.20
2019-04-26T00:36:26.880Z,0.80
2019-04-26T00:38:55.256Z,1.10
2019-04-26T00:41:24.011Z,1.10
2019-04-26T00:43:53.273Z,1.17
2019-04-26T00:46:24.744Z,0.87
2019-04-26T00:48:54.394Z,0.80
2019-04-26T00:51:23.517Z,0.70
2019-04-26T00:53:52.542Z,1.00
2019-04-26T00:56:22.241Z,2.30
2019-04-26T00:58:51.461Z,0.80
2019-04-26T01:01:21.372Z,1.20
2019-04-26T01:03:49.762Z,0.93
2019-04-26T01:06:20.877Z,1.23
2019-04-26T01:08:51.182Z,1.90
2019-04-26T01:11:19.978Z,1.40
2019-04-26T01:13:48.347Z,1.10
2019-04-26T01:16:17.443Z,1.30
2019-04-26T01:18:48.403Z,1.33
2019-04-26T01:21:20.587Z,0.90
2019-04-26T01:23:51.644Z,1.30
2019-04-26T01:26:33.679Z,0.70
2019-04-26T01:29:07.935Z,1.30
2019-04-26T01:31:41.990Z,1.30
2019-04-26T01:34:10.525Z,1.40
2019-04-26T01:36:40.674Z,1.53
2019-04-26T01:39:14.444Z,1.80
2019-04-26T01:41:48.035Z,1.30
2019-04-26T01:44:18.811Z,1.20
2019-04-26T01:46:51.701Z,1.27
2019-04-26T01:49:24.129Z,1.23
2019-04-26T01:52:10.899Z,1.33
2019-04-26T01:54:42.238Z,1.27
2019-04-26T01:57:11.045Z,1.63
2019-04-26T01:59:46.840Z,2.23
2019-04-26T02:02:33.209Z,2.90
2019-04-26T02:05:15.555Z,1.63
2019-04-26T02:07:44.205Z,1.20
2019-04-26T02:10:15.645Z,1.50
2019-04-26T02:12:46.543Z,2.17
2019-04-26T02:15:16.405Z,2.90
2019-04-26T02:17:46.529Z,2.80
2019-04-26T02:20:17.962Z,3.13
2019-04-26T02:22:51.106Z,2.03
2019-04-26T02:25:19.564Z,1.60
2019-04-26T02:27:48.094Z,2.40
2019-04-26T02:30:16.888Z,2.33
2019-04-26T02:32:45.231Z,1.80
2019-04-26T02:35:13.624Z,1.83
2019-04-26T02:37:42.351Z,1.80
2019-04-26T02:40:16.702Z,1.60
2019-04-26T02:42:45.632Z,1.67
2019-04-26T02:45:29.991Z,1.60
2019-04-26T02:48:16.744Z,1.90
2019-04-26T02:50:49.830Z,1.93
2019-04-26T02:53:28.869Z,1.70
2019-04-26T02:56:24.244Z,1.50
2019-04-26T02:59:01.755Z,1.70
2019-04-26T03:01:32.313Z,2.00
2019-04-26T03:04:01.349Z,2.23
2019-04-26T03:06:34.273Z,1.70
2019-04-26T03:09:06.777Z,1.77
2019-04-26T03:11:39.150Z,1.70
2019-04-26T03:14:12.423Z,1.90
2019-04-26T03:16:57.381Z,1.57
2019-04-26T03:19:43.169Z,1.57
2019-04-26T03:22:21.016Z,1.60
2019-04-26T03:25:11.963Z,1.83
2019-04-26T03:28:00.156Z,1.20
2019-04-26T03:30:42.283Z,1.40
2019-04-26T03:33:22.399Z,1.43
2019-04-26T03:36:01.423Z,1.60
2019-04-26T03:38:43.586Z,1.97
2019-04-26T03:41:25.836Z,1.80
2019-04-26T03:44:00.327Z,1.47
2019-04-26T03:46:49.868Z,1.93
2019-04-26T03:49:41.425Z,1.70
2019-04-26T03:52:18.332Z,1.77
2019-04-26T03:54:49.771Z,1.60
2019-04-26T03:57:38.914Z,1.67
2019-04-26T04:00:11.619Z,3.77
2019-04-26T04:02:50.688Z,2.00
2019-04-26T04:05:26.540Z,2.23
2019-04-26T04:07:58.084Z,1.70
2019-04-26T04:10:50.604Z,2.10
2019-04-26T04:13:40.621Z,2.53
2019-04-26T04:16:20.563Z,2.47
2019-04-26T04:18:53.988Z,4.30
2019-04-26T04:21:43.053Z,3.50
2019-04-26T04:24:14.836Z,3.50
2019-04-26T04:26:55.654Z,2.63
2019-04-26T04:29:50.531Z,2.93
2019-04-26T04:32:23.963Z,2.73
2019-04-26T04:34:55.769Z,3.20
2019-04-26T04:37:27.239Z,2.80
2019-04-26T04:40:18.175Z,3.63
2019-04-26T04:43:11.685Z,3.57
2019-04-26T04:45:56.410Z,3.70
2019-04-26T04:48:43.299Z,3.70
2019-04-26T04:51:42.847Z,3.20
2019-04-26T04:54:20.140Z,3.67
2019-04-26T04:56:57.325Z,3.70
2019-04-26T04:59:52.452Z,3.70
2019-04-26T05:03:57.919Z,3.30
2019-04-26T05:06:47.040Z,4.23
2019-04-26T05:09:33.680Z,3.63
2019-04-26T05:12:16.966Z,4.20
2019-04-26T05:14:56.709Z,2.70
2019-04-26T05:17:46.159Z,2.30
2019-04-26T05:20:17.930Z,2.33
2019-04-26T05:22:55.480Z,1.70
2019-04-26T05:25:58.348Z,2.50
2019-04-26T05:28:56.809Z,2.73
2019-04-26T05:31:37.762Z,1.77
2019-04-26T05:34:19.657Z,2.50
2019-04-26T05:37:20.067Z,2.00
2019-04-26T05:40:15.586Z,2.30
2019-04-26T05:43:03.711Z,3.57
2019-04-26T05:46:00.656Z,2.80
2019-04-26T05:48:58.070Z,2.10
2019-04-26T05:51:51.946Z,3.07
2019-04-26T05:54:40.345Z,1.80
2019-04-26T05:57:29.806Z,1.80
2019-04-26T06:00:32.898Z,2.13
2019-04-26T06:03:28.657Z,2.60
2019-04-26T06:06:23.054Z,2.53
2019-04-26T06:09:08.297Z,2.93
2019-04-26T06:11:47.355Z,3.40
2019-04-26T06:14:52.940Z,3.40
2019-04-26T06:17:34.936Z,4.23
2019-04-26T06:20:22.661Z,5.33
2019-04-26T06:22:57.691Z,4.93
2019-04-26T06:25:52.490Z,4.73
2019-04-26T06:28:36.688Z,5.00
2019-04-26T06:31:23.114Z,4.60
2019-04-26T06:34:11.365Z,4.10
2019-04-26T06:36:50.059Z,3.97
2019-04-26T06:39:32.025Z,4.23
2019-04-26T06:42:37.227Z,3.67
2019-04-26T06:45:32.672Z,3.37
2019-04-26T06:48:14.388Z,3.50
2019-04-26T06:50:54.529Z,3.30
2019-04-26T06:53:35.034Z,2.60
2019-04-26T06:56:24.995Z,3.20
2019-04-26T06:59:05.860Z,2.73
2019-04-26T07:01:39.827Z,2.40
2019-04-26T07:04:11.250Z,2.70
2019-04-26T07:06:48.653Z,2.67
2019-04-26T07:09:20.240Z,2.70
2019-04-26T07:12:05.240Z,2.73
2019-04-26T07:15:00.577Z,2.73
2019-04-26T07:17:55.276Z,2.67
2019-04-26T07:20:41.572Z,3.10
2019-04-26T07:23:45.157Z,3.27
2019-04-26T07:26:49.816Z,2.67
2019-04-26T07:29:45.609Z,2.57
2019-04-26T07:32:36.343Z,2.07
2019-04-26T07:35:35.194Z,1.40
2019-04-26T07:38:48.979Z,1.17
2019-04-26T07:41:24.543Z,1.47
2019-04-26T07:44:07.613Z,1.13
2019-04-26T07:47:04.126Z,0.90
2019-04-26T07:49:59.651Z,1.13
2019-04-26T07:52:48.898Z,1.10
2019-04-26T07:55:29.491Z,1.83
2019-04-26T07:58:20.829Z,1.87
2019-04-26T08:01:37.061Z,0.90
2019-04-26T08:04:15.832Z,1.63
2019-04-26T08:07:08.577Z,1.70
2019-04-26T08:09:40.039Z,2.80
2019-04-26T08:12:12.151Z,2.00
2019-04-26T08:14:53.941Z,0.80
2019-04-26T08:17:35.620Z,2.17
2019-04-26T08:20:37.413Z,1.90
2019-04-26T08:23:16.857Z,1.70
2019-04-26T08:25:42.508Z,0.90
2019-04-26T08:28:14.259Z,0.80
2019-04-26T08:30:46.261Z,1.10
2019-04-26T08:33:18.301Z,1.30
2019-04-26T08:35:53.278Z,1.60
2019-04-26T08:38:22.833Z,1.20
2019-04-26T08:40:52.905Z,1.10
2019-04-26T08:43:41.691Z,0.70
2019-04-26T08:46:17.553Z,0.70
2019-04-26T08:49:07.103Z,1.30
2019-04-26T08:51:38.437Z,1.07
2019-04-26T08:54:18.861Z,0.80
2019-04-26T08:56:50.318Z,0.90
2019-04-26T08:59:24.496Z,0.83
2019-04-26T09:01:57.005Z,1.77
2019-04-26T09:04:45.811Z,1.30
2019-04-26T09:07:18.912Z,0.97
2019-04-26T09:09:57.008Z,0.90
2019-04-26T09:12:24.004Z,1.37
2019-04-26T09:14:55.491Z,2.17
2019-04-26T09:17:27.817Z,1.37
2019-04-26T09:19:54.181Z,0.70
2019-04-26T09:22:40.542Z,2.00
2019-04-26T09:25:30.247Z,0.97
2019-04-26T09:28:01.109Z,0.90
2019-04-26T09:30:34.003Z,0.57
2019-04-26T09:33:06.164Z,1.47
2019-04-26T09:35:34.594Z,2.50
2019-04-26T09:38:03.087Z,1.23
2019-04-26T09:40:31.785Z,0.80
2019-04-26T09:43:15.251Z,1.83
2019-04-26T09:45:54.844Z,1.00
2019-04-26T09:48:24.920Z,0.90
2019-04-26T09:50:55.275Z,0.70
2019-04-26T09:53:23.705Z,3.07
2019-04-26T09:55:52.099Z,2.43
2019-04-26T09:58:20.517Z,2.87
2019-04-26T10:00:50.254Z,1.43
2019-04-26T10:03:18.911Z,0.80
2019-04-26T10:05:47.373Z,1.20
2019-04-26T10:08:15.939Z,1.27
2019-04-26T10:10:44.420Z,1.20
2019-04-26T10:13:17.401Z,1.27
2019-04-26T10:15:50.278Z,1.30
2019-04-26T10:18:24.528Z,1.40
2019-04-26T10:20:51.463Z,2.17
2019-04-26T10:23:19.887Z,1.93
2019-04-26T10:25:52.064Z,1.80
2019-04-26T10:28:18.653Z,3.40
2019-04-26T10:30:47.385Z,1.07
2019-04-26T10:33:15.940Z,1.00
2019-04-26T10:35:44.436Z,1.57
2019-04-26T10:38:12.824Z,2.87
2019-04-26T10:40:41.220Z,1.40
2019-04-26T10:43:11.258Z,1.03
2019-04-26T10:45:39.738Z,1.00
2019-04-26T10:48:09.578Z,1.20
2019-04-26T10:50:38.729Z,1.77
2019-04-26T10:53:08.836Z,1.13
2019-04-26T10:55:42.026Z,1.47
2019-04-26T10:58:16.114Z,1.77
2019-04-26T11:00:48.412Z,1.00
2019-04-26T11:03:16.623Z,1.50
2019-04-26T11:05:45.044Z,1.50
2019-04-26T11:08:13.461Z,0.90
2019-04-26T11:10:48.580Z,1.10
2019-04-26T11:13:12.095Z,0.93
2019-04-26T11:15:40.843Z,0.97
2019-04-26T11:18:09.419Z,2.40
2019-04-26T11:20:41.402Z,0.80
2019-04-26T11:23:11.621Z,1.43
2019-04-26T11:25:38.343Z,1.23
2019-04-26T11:28:06.826Z,2.63
2019-04-26T11:30:35.309Z,1.83
2019-04-26T11:33:07.221Z,3.07
2019-04-26T11:35:34.856Z,1.40
2019-04-26T11:38:03.717Z,1.10
2019-04-26T11:40:32.219Z,0.90
2019-04-26T11:43:00.739Z,1.43
2019-04-26T11:45:29.213Z,0.70
2019-04-26T11:47:57.691Z,1.13
2019-04-26T11:50:26.187Z,1.20
2019-04-26T11:52:54.605Z,1.30
2019-04-26T11:55:25.239Z,0.93
2019-04-26T11:57:53.154Z,1.47
2019-04-26T12:00:23.465Z,1.50
2019-04-26T12:02:52.270Z,1.30
2019-04-26T12:05:34.478Z,1.20
2019-04-26T12:08:04.512Z,0.60
2019-04-26T12:10:32.958Z,0.60
2019-04-26T12:13:05.948Z,1.53
2019-04-26T12:15:31.584Z,0.77
2019-04-26T12:18:00.026Z,0.47
2019-04-26T12:20:28.587Z,0.40
2019-04-26T12:22:56.955Z,0.53
2019-04-26T12:25:25.347Z,0.60
2019-04-26T12:27:53.943Z,0.40
2019-04-26T12:30:26.317Z,0.60
2019-04-26T12:32:52.788Z,1.60
2019-04-26T12:35:21.183Z,1.07
2019-04-26T12:37:50.637Z,1.00
2019-04-26T12:40:19.798Z,0.77
2019-04-26T12:42:48.365Z,0.40
2019-04-26T12:45:21.616Z,0.40
2019-04-26T12:48:00.888Z,0.70
2019-04-26T12:50:34.085Z,0.70
2019-04-26T12:52:59.496Z,0.50
2019-04-26T12:55:27.882Z,0.60
2019-04-26T12:57:56.327Z,0.73
2019-04-26T13:00:26.647Z,0.77
2019-04-26T13:02:55.847Z,0.97
2019-04-26T13:05:24.359Z,1.63
2019-04-26T13:07:53.957Z,0.77
2019-04-26T13:10:27.024Z,0.60
2019-04-26T13:13:02.682Z,1.13
2019-04-26T13:16:02.586Z,1.00
2019-04-26T13:18:31.828Z,0.60
2019-04-26T13:21:03.135Z,0.77
2019-04-26T13:23:31.338Z,1.00
2019-04-26T13:26:01.463Z,0.80
2019-04-26T13:28:30.229Z,2.10
2019-04-26T13:31:01.878Z,0.87
2019-04-26T13:33:29.215Z,1.07
2019-04-26T13:36:04.920Z,1.43
2019-04-26T13:38:27.981Z,1.43
2019-04-26T13:40:59.674Z,0.60
2019-04-26T13:43:28.480Z,0.90
2019-04-26T13:46:01.644Z,0.97
2019-04-26T13:48:43.551Z,0.87
2019-04-26T13:51:21.494Z,1.00
2019-04-26T13:53:49.888Z,1.03
2019-04-26T13:56:18.297Z,2.60
2019-04-26T13:58:46.688Z,1.20
2019-04-26T14:01:18.580Z,1.23
2019-04-26T14:03:45.780Z,0.70
2019-04-26T14:06:14.260Z,2.67
2019-04-26T14:08:42.886Z,1.03
2019-04-26T14:11:11.277Z,1.30
2019-04-26T14:13:39.878Z,1.10
2019-04-26T14:16:08.277Z,1.00
2019-04-26T14:18:39.147Z,1.67
2019-04-26T14:21:06.891Z,1.70
2019-04-26T14:23:52.405Z,1.87
2019-04-26T14:26:22.591Z,1.67
2019-04-26T14:28:54.289Z,6.87
2019-04-26T14:31:21.282Z,4.17
2019-04-26T14:33:49.711Z,2.30
2019-04-26T14:36:18.625Z,2.20
2019-04-26T14:38:47.228Z,2.33
2019-04-26T14:41:22.018Z,2.23
2019-04-26T14:43:45.965Z,3.13
2019-04-26T14:46:16.294Z,2.33
2019-04-26T14:48:54.876Z,2.30
2019-04-26T14:51:16.873Z,2.20
2019-04-26T14:53:45.130Z,2.80
2019-04-26T14:56:13.560Z,5.07
2019-04-26T14:58:42.354Z,2.53
2019-04-26T15:01:15.484Z,2.20
2019-04-26T15:03:45.699Z,2.67
2019-04-26T15:06:20.455Z,2.57
2019-04-26T15:08:48.996Z,2.40
2019-04-26T15:11:17.324Z,2.77
2019-04-26T15:13:46.001Z,2.13
2019-04-26T15:16:14.566Z,1.80
2019-04-26T15:18:43.021Z,1.77
2019-04-26T15:21:12.931Z,1.60
2019-04-26T15:23:41.409Z,1.50
2019-04-26T15:26:09.996Z,1.33
2019-04-26T15:28:38.457Z,1.50
2019-04-26T15:31:06.960Z,0.87
2019-04-26T15:33:36.077Z,2.33
2019-04-26T15:36:06.404Z,0.70
2019-04-26T15:38:41.497Z,0.90
2019-04-26T15:41:14.608Z,0.97
2019-04-26T15:43:42.873Z,2.83
2019-04-26T15:46:13.509Z,1.67
2019-04-26T15:48:55.739Z,1.20
2019-04-26T15:51:27.481Z,1.90
2019-04-26T15:53:56.105Z,1.53
2019-04-26T15:56:24.544Z,1.47
2019-04-26T15:58:52.960Z,1.20
2019-04-26T16:01:21.514Z,1.47
2019-04-26T16:03:49.916Z,1.37
2019-04-26T16:06:18.369Z,1.57
2019-04-26T16:08:46.947Z,1.43
2019-04-26T16:11:15.621Z,1.27
2019-04-26T16:13:45.121Z,1.30
2019-04-26T16:16:16.478Z,2.67
2019-04-26T16:18:44.416Z,2.37
2019-04-26T16:21:17.823Z,1.87
2019-04-26T16:23:51.143Z,2.83
2019-04-26T16:26:15.372Z,1.00
2019-04-26T16:28:45.820Z,1.10
2019-04-26T16:31:21.548Z,0.80
2019-04-26T16:33:52.084Z,1.33
2019-04-26T16:36:21.895Z,1.23
2019-04-26T16:38:56.095Z,1.20
2019-04-26T16:41:21.767Z,2.00
2019-04-26T16:43:53.598Z,0.90
2019-04-26T16:46:24.232Z,1.43
2019-04-26T16:48:57.074Z,1.07
2019-04-26T16:51:23.294Z,1.13
2019-04-26T16:54:03.601Z,1.50
2019-04-26T16:56:26.275Z,1.30
2019-04-26T16:58:54.731Z,1.17
2019-04-26T17:01:23.434Z,3.30
2019-04-26T17:03:53.489Z,1.43
2019-04-26T17:06:23.334Z,1.40
2019-04-26T17:09:00.249Z,1.30
2019-04-26T17:11:23.003Z,1.00
2019-04-26T17:13:56.145Z,1.40
2019-04-26T17:16:22.440Z,1.30
2019-04-26T17:18:51.798Z,1.77
2019-04-26T17:21:25.486Z,2.30
2019-04-26T17:23:56.417Z,1.93
2019-04-26T17:26:29.312Z,3.13
2019-04-26T17:28:56.662Z,2.70
2019-04-26T17:31:25.119Z,1.93
2019-04-26T17:33:53.539Z,1.97
2019-04-26T17:36:22.045Z,2.90
2019-04-26T17:38:50.656Z,2.00
2019-04-26T17:41:19.124Z,2.30
2019-04-26T17:43:52.060Z,2.60
2019-04-26T17:46:18.271Z,4.60
2019-04-26T17:48:49.415Z,3.07
2019-04-26T17:51:19.118Z,3.73
2019-04-26T17:53:50.613Z,4.63
2019-04-26T17:56:18.238Z,5.40
2019-04-26T17:58:52.451Z,3.43
2019-04-26T18:01:41.496Z,2.87
2019-04-26T18:03:52.256Z,3.00
2019-04-26T18:06:29.043Z,4.85
2019-04-26T18:08:54.606Z,8.55
2019-04-26T18:11:20.182Z,7.75
2019-04-26T18:13:51.109Z,7.72
2019-04-26T18:16:22.378Z,13.85
2019-04-26T18:19:03.264Z,9.83
2019-04-26T18:21:43.696Z,14.28
2019-04-26T18:24:13.206Z,13.43
2019-04-26T18:26:41.800Z,9.80
2019-04-26T18:29:10.415Z,5.73
2019-04-26T18:31:39.725Z,3.20
2019-04-26T18:34:08.199Z,2.70
2019-04-26T18:36:36.693Z,2.43
2019-04-26T18:39:07.900Z,2.93
2019-04-26T18:41:36.389Z,5.10
2019-04-26T18:44:05.735Z,2.77
2019-04-26T18:46:40.050Z,4.10
2019-04-26T18:49:06.143Z,3.60
2019-04-26T18:51:34.594Z,2.57
2019-04-26T18:54:09.232Z,3.63
2019-04-26T18:56:40.524Z,2.70
2019-04-26T18:59:11.738Z,3.17
2019-04-26T19:01:41.831Z,3.87
2019-04-26T19:04:12.747Z,3.10
2019-04-26T19:06:42.223Z,5.70
2019-04-26T19:09:09.885Z,11.17
2019-04-26T19:11:42.086Z,21.67
2019-04-26T19:14:18.858Z,6.90
2019-04-26T19:16:50.582Z,4.57
2019-04-26T19:19:37.264Z,3.40
2019-04-26T19:22:09.352Z,3.83
2019-04-26T19:24:38.644Z,3.90
2019-04-26T19:27:07.357Z,5.03
2019-04-26T19:29:36.299Z,4.60
2019-04-26T19:32:05.577Z,3.60
2019-04-26T19:34:34.030Z,6.40
2019-04-26T19:37:03.349Z,11.97
2019-04-26T19:39:35.385Z,8.23
2019-04-26T19:42:02.537Z,10.87
2019-04-26T19:44:31.553Z,4.43
2019-04-26T19:47:16.932Z,4.13
2019-04-26T19:49:54.098Z,3.47
2019-04-26T19:52:33.723Z,3.23
2019-04-26T19:55:02.045Z,2.80
2019-04-26T19:57:42.653Z,3.40
2019-04-26T20:03:43.094Z,4.53
2019-04-26T20:06:14.190Z,5.10
2019-04-26T20:08:45.932Z,5.33
2019-04-26T20:11:14.295Z,7.10
2019-04-26T20:13:42.681Z,5.90
2019-04-26T20:16:11.223Z,7.10
2019-04-26T20:18:39.887Z,6.40
2019-04-26T20:21:12.393Z,6.43
2019-04-26T20:23:45.828Z,5.17
2019-04-26T20:26:09.021Z,5.53
2019-04-26T20:28:37.615Z,5.27
2019-04-26T20:31:13.627Z,4.47
2019-04-26T20:33:42.473Z,4.50
2019-04-26T20:36:11.062Z,5.40
2019-04-26T20:38:43.703Z,4.67
2019-04-26T20:41:13.160Z,4.20
2019-04-26T20:43:45.605Z,4.33
2019-04-26T20:46:14.911Z,4.30
2019-04-26T20:48:40.190Z,4.03
2019-04-26T20:51:11.025Z,4.70
2019-04-26T20:53:41.306Z,6.00
2019-04-26T20:56:10.662Z,6.60
2019-04-26T20:58:43.200Z,6.30
2019-04-26T21:01:12.522Z,5.30
2019-04-26T21:03:44.424Z,4.90
2019-04-26T21:06:11.454Z,5.17
2019-04-26T21:08:40.086Z,4.57
2019-04-26T21:11:08.768Z,4.73
2019-04-26T21:13:37.313Z,4.77
2019-04-26T21:16:10.474Z,6.43
2019-04-26T21:18:40.031Z,7.57
2019-04-26T21:21:10.434Z,7.10
2019-04-26T21:23:39.999Z,7.23
2019-04-26T21:26:23.530Z,7.53
2019-04-26T21:28:56.881Z,7.20
2019-04-26T21:31:40.804Z,7.50
2019-04-26T21:34:12.490Z,6.73
2019-04-26T21:36:43.807Z,6.70
2019-04-26T21:39:27.008Z,6.73
2019-04-26T21:41:57.110Z,5.97
2019-04-26T21:44:25.755Z,7.10
2019-04-26T21:46:58.664Z,9.20
2019-04-26T21:49:24.506Z,8.33
2019-04-26T21:51:54.301Z,7.50
2019-04-26T21:54:24.954Z,6.70
2019-04-26T21:56:53.734Z,7.17
2019-04-26T21:59:22.194Z,7.30
2019-04-26T22:01:53.889Z,7.40
2019-04-26T22:04:20.965Z,6.30
2019-04-26T22:06:49.435Z,6.63
2019-04-26T22:09:28.617Z,6.37
2019-04-26T22:11:56.538Z,6.07
2019-04-26T22:14:26.650Z,6.50
2019-04-26T22:17:02.029Z,5.97
2019-04-26T22:19:35.343Z,6.20
2019-04-26T22:22:24.184Z,6.20
2019-04-26T22:24:55.448Z,5.80
2019-04-26T22:27:25.624Z,5.93
2019-04-26T22:29:55.065Z,6.23
2019-04-26T22:32:23.657Z,5.57
2019-04-26T22:34:53.744Z,5.87
2019-04-26T22:37:29.529Z,5.67
2019-04-26T22:39:54.218Z,5.60
2019-04-26T22:42:23.930Z,5.30
2019-04-26T22:44:56.594Z,4.90
2019-04-26T22:47:26.731Z,5.50
2019-04-26T22:49:55.184Z,5.60
2019-04-26T22:52:23.661Z,5.80
2019-04-26T22:54:53.746Z,5.70
2019-04-26T22:57:23.200Z,6.57
2019-04-26T22:59:53.562Z,6.70
2019-04-26T23:02:23.614Z,5.97
2019-04-26T23:04:55.924Z,6.23
2019-04-26T23:07:25.274Z,6.13
2019-04-26T23:09:55.342Z,6.20
2019-04-26T23:12:28.305Z,5.80
2019-04-26T23:15:03.221Z,6.20
2019-04-26T23:17:49.677Z,6.13
2019-04-26T23:20:37.812Z,6.27
2019-04-26T23:23:08.531Z,6.27
2019-04-26T23:25:36.838Z,6.30
2019-04-26T23:28:05.237Z,6.60
2019-04-26T23:30:33.742Z,6.43
2019-04-26T23:33:02.195Z,6.70
2019-04-26T23:35:30.694Z,7.30
2019-04-26T23:38:00.990Z,6.53
2019-04-26T23:40:29.314Z,7.07
2019-04-26T23:42:57.847Z,6.90
2019-04-26T23:45:26.469Z,7.70
2019-04-26T23:47:54.861Z,6.93
2019-04-26T23:50:25.596Z,8.27
2019-04-26T23:52:53.422Z,8.10
2019-04-26T23:55:23.523Z,6.63
2019-04-26T23:57:53.476Z,6.80
